Time;durP1;ratioP1;P1;durP2;ratioP2;P2;SDS_P1;SDS_P2;PMS_P1;PMS_P2;Temp;Humidity;BMP_temperature;BMP_pressure;BME280_temperature;BME280_humidity;BME280_pressure;Samples;Min_cycle;Max_cycle;Signal;HPM_P1;HPM_P2
2020/12/18 00:02:18;;;;;;;88.25;57.67;;;;;;;;;;6234010;28;20046;-71
2020/12/18 00:05:19;;;;;;;86.88;55.75;;;;;;;;;;6236958;28;20050;-71
2020/12/18 00:08:20;;;;;;;91.70;57.53;;;;;;;;;;6239061;28;20038;-70
2020/12/18 00:11:23;;;;;;;87.60;56.63;;;;;;;;;;6236955;28;20053;-69
2020/12/18 00:14:24;;;;;;;86.85;56.83;;;;;;;;;;6236258;28;20689;-70
2020/12/18 00:17:25;;;;;;;84.63;55.40;;;;;;;;;;6233615;28;20045;-69
2020/12/18 00:20:26;;;;;;;93.32;57.13;;;;;;;;;;6239340;28;20049;-71
2020/12/18 00:23:27;;;;;;;92.10;57.90;;;;;;;;;;6232666;28;20132;-70
2020/12/18 00:26:35;;;;;;;89.10;57.70;;;;;;;;;;6238256;28;20037;-70
2020/12/18 00:29:36;;;;;;;93.28;59.22;;;;;;;;;;6235343;28;20072;-70
2020/12/18 00:32:37;;;;;;;97.95;60.28;;;;;;;;;;6243458;28;20045;-72
2020/12/18 00:35:38;;;;;;;96.18;62.58;;;;;;;;;;6232427;28;20046;-70
2020/12/18 00:38:39;;;;;;;88.00;56.00;;;;;;;;;;6239292;28;20044;-72
2020/12/18 00:41:41;;;;;;;85.55;56.20;;;;;;;;;;6237462;28;20060;-71
2020/12/18 00:44:42;;;;;;;87.32;57.63;;;;;;;;;;6238702;28;20038;-69
2020/12/18 00:47:43;;;;;;;84.97;57.20;;;;;;;;;;6232587;28;20153;-72
2020/12/18 00:50:44;;;;;;;92.55;59.17;;;;;;;;;;6229932;28;20057;-70
2020/12/18 00:53:45;;;;;;;94.63;60.55;;;;;;;;;;6230946;28;20045;-70
2020/12/18 00:56:47;;;;;;;97.15;59.00;;;;;;;;;;6232641;28;20045;-72
2020/12/18 00:59:48;;;;;;;83.63;56.80;;;;;;;;;;6232593;28;20413;-70
2020/12/18 01:02:49;;;;;;;131.88;84.18;;;;;;;;;;6219475;28;20041;-71
2020/12/18 01:05:50;;;;;;;109.00;68.38;;;;;;;;;;6231514;28;20049;-70
2020/12/18 01:08:51;;;;;;;113.07;72.47;;;;;;;;;;6233092;28;20079;-70
2020/12/18 01:11:53;;;;;;;190.38;108.25;;;;;;;;;;6226078;28;20125;-71
2020/12/18 01:14:55;;;;;;;124.55;74.30;;;;;;;;;;6238958;28;20049;-72
2020/12/18 01:17:56;;;;;;;95.75;61.65;;;;;;;;;;6239838;28;20053;-70
2020/12/18 01:20:59;;;;;;;90.88;58.03;;;;;;;;;;6239108;28;20551;-70
2020/12/18 01:24:00;;;;;;;96.83;60.50;;;;;;;;;;6235518;28;20073;-70
2020/12/18 01:27:02;;;;;;;98.82;62.85;;;;;;;;;;6233228;28;20046;-71
2020/12/18 01:30:03;;;;;;;99.13;61.45;;;;;;;;;;6234263;28;20132;-71
2020/12/18 01:33:04;;;;;;;99.85;62.22;;;;;;;;;;6234265;28;20049;-70
2020/12/18 01:36:06;;;;;;;102.00;62.72;;;;;;;;;;6231288;28;20041;-72
2020/12/18 01:39:08;;;;;;;106.22;64.65;;;;;;;;;;6236849;28;20110;-72
2020/12/18 01:42:10;;;;;;;95.70;63.15;;;;;;;;;;6234563;28;20053;-70
2020/12/18 01:45:11;;;;;;;96.22;62.13;;;;;;;;;;6235564;28;20049;-74
2020/12/18 01:48:12;;;;;;;103.03;63.50;;;;;;;;;;6234802;28;20053;-70
2020/12/18 01:51:14;;;;;;;93.78;60.50;;;;;;;;;;6231850;28;20062;-70
2020/12/18 01:54:17;;;;;;;91.32;59.47;;;;;;;;;;6241194;28;20132;-71
2020/12/18 01:57:19;;;;;;;91.35;59.20;;;;;;;;;;6232265;28;20045;-70
2020/12/18 02:00:20;;;;;;;90.93;59.72;;;;;;;;;;6236165;28;20094;-75
2020/12/18 02:03:21;;;;;;;94.55;60.30;;;;;;;;;;6242865;28;20041;-72
2020/12/18 02:06:25;;;;;;;93.97;59.40;;;;;;;;;;6239112;28;20124;-73
2020/12/18 02:09:26;;;;;;;95.00;60.83;;;;;;;;;;6238190;28;20132;-71
2020/12/18 02:12:28;;;;;;;95.40;62.33;;;;;;;;;;6237334;28;20137;-71
2020/12/18 02:15:30;;;;;;;96.75;61.13;;;;;;;;;;6241538;28;20071;-73
2020/12/18 02:18:31;;;;;;;95.05;59.22;;;;;;;;;;6243072;28;20686;-71
2020/12/18 02:21:35;;;;;;;91.20;58.60;;;;;;;;;;6240669;28;20453;-72
2020/12/18 02:24:36;;;;;;;;;;;;;;;;;;6241362;28;20049;-71
2020/12/18 02:27:40;;;;;;;88.28;56.50;;;;;;;;;;6237390;28;19928;-71
2020/12/18 02:30:41;;;;;;;87.78;57.80;;;;;;;;;;6238711;28;20192;-76
2020/12/18 02:33:42;;;;;;;85.88;56.78;;;;;;;;;;6237848;28;20328;-71
2020/12/18 02:36:43;;;;;;;87.68;57.78;;;;;;;;;;6235121;28;20075;-75
2020/12/18 02:39:44;;;;;;;92.00;58.17;;;;;;;;;;6234358;28;20060;-70
2020/12/18 02:42:46;;;;;;;89.32;57.90;;;;;;;;;;6236474;28;20398;-69
2020/12/18 02:45:47;;;;;;;92.25;59.55;;;;;;;;;;6232439;28;20376;-71
2020/12/18 02:48:48;;;;;;;94.65;60.30;;;;;;;;;;6234998;28;20137;-74
2020/12/18 02:51:50;;;;;;;93.97;60.92;;;;;;;;;;6234008;28;20046;-70
2020/12/18 02:54:52;;;;;;;91.03;56.88;;;;;;;;;;6235886;28;20560;-71
2020/12/18 02:57:54;;;;;;;94.90;59.97;;;;;;;;;;6236182;28;20049;-70
2020/12/18 03:00:55;;;;;;;94.88;59.83;;;;;;;;;;6236817;28;20058;-70
2020/12/18 03:03:56;;;;;;;94.38;58.97;;;;;;;;;;6232578;28;20054;-71
2020/12/18 03:06:57;;;;;;;89.40;58.25;;;;;;;;;;6234928;28;20134;-73
2020/12/18 03:09:58;;;;;;;84.13;57.08;;;;;;;;;;6234283;28;20455;-70
2020/12/18 03:13:00;;;;;;;88.60;58.67;;;;;;;;;;6243021;28;20136;-71
2020/12/18 03:16:01;;;;;;;87.30;56.47;;;;;;;;;;6230536;28;20140;-71
2020/12/18 03:19:03;;;;;;;87.45;58.45;;;;;;;;;;6245317;28;20140;-69
2020/12/18 03:22:04;;;;;;;84.72;58.75;;;;;;;;;;6239780;28;20042;-70
2020/12/18 03:25:05;;;;;;;99.43;63.95;;;;;;;;;;6234435;28;20054;-72
2020/12/18 03:28:06;;;;;;;101.47;62.58;;;;;;;;;;6233559;28;20452;-69
2020/12/18 03:31:08;;;;;;;101.75;63.38;;;;;;;;;;6234104;28;20128;-70
2020/12/18 03:34:09;;;;;;;91.63;61.78;;;;;;;;;;6241039;28;20614;-69
2020/12/18 03:37:10;;;;;;;108.60;67.75;;;;;;;;;;6237383;28;20486;-70
2020/12/18 03:40:11;;;;;;;95.30;62.53;;;;;;;;;;6241202;28;20128;-70
2020/12/18 03:43:13;;;;;;;94.75;63.03;;;;;;;;;;6237717;28;20076;-71
2020/12/18 03:46:15;;;;;;;98.25;64.15;;;;;;;;;;6233569;28;20547;-70
2020/12/18 03:49:16;;;;;;;93.15;61.90;;;;;;;;;;6240076;28;20050;-73
2020/12/18 03:52:17;;;;;;;98.93;63.80;;;;;;;;;;6238112;28;20137;-70
2020/12/18 03:55:18;;;;;;;103.53;65.25;;;;;;;;;;6231986;28;20046;-72
2020/12/18 03:58:20;;;;;;;101.90;63.88;;;;;;;;;;6239676;28;20050;-70
2020/12/18 04:01:21;;;;;;;103.70;66.07;;;;;;;;;;6242383;28;20077;-71
2020/12/18 04:04:22;;;;;;;106.75;67.47;;;;;;;;;;6234142;28;20077;-74
2020/12/18 04:07:23;;;;;;;102.22;64.00;;;;;;;;;;6236452;28;20180;-70
2020/12/18 04:10:24;;;;;;;103.45;65.22;;;;;;;;;;6239483;28;20135;-70
2020/12/18 04:13:26;;;;;;;103.38;65.50;;;;;;;;;;6237654;28;20046;-71
2020/12/18 04:16:27;;;;;;;102.13;64.72;;;;;;;;;;6232367;28;20045;-70
2020/12/18 04:19:28;;;;;;;101.57;64.63;;;;;;;;;;6235187;28;20140;-73
2020/12/18 04:22:29;;;;;;;100.60;63.92;;;;;;;;;;6231220;28;20052;-70
2020/12/18 04:25:30;;;;;;;104.07;66.78;;;;;;;;;;6250732;28;20091;-70
2020/12/18 04:28:32;;;;;;;96.32;64.63;;;;;;;;;;6241408;28;20065;-70
2020/12/18 04:31:33;;;;;;;95.93;63.88;;;;;;;;;;6236022;28;20480;-72
2020/12/18 04:34:35;;;;;;;95.53;62.00;;;;;;;;;;6241068;28;20053;-70
2020/12/18 04:37:36;;;;;;;98.00;63.58;;;;;;;;;;6237064;28;20045;-70
2020/12/18 04:40:37;;;;;;;102.10;63.72;;;;;;;;;;6237885;28;20611;-69
2020/12/18 04:43:40;;;;;;;92.93;62.13;;;;;;;;;;6236875;28;20160;-70
2020/12/18 04:46:42;;;;;;;97.30;62.13;;;;;;;;;;6237785;28;20982;-70
2020/12/18 04:49:43;;;;;;;89.80;59.95;;;;;;;;;;6242631;28;20037;-70
2020/12/18 04:52:45;;;;;;;89.72;60.35;;;;;;;;;;6232963;28;20054;-71
2020/12/18 04:55:48;;;;;;;92.50;59.70;;;;;;;;;;6239740;28;20049;-70
2020/12/18 04:58:52;;;;;;;89.93;60.47;;;;;;;;;;6237250;28;20051;-70
2020/12/18 05:01:54;;;;;;;94.20;60.72;;;;;;;;;;6234512;28;20041;-70
2020/12/18 05:04:56;;;;;;;88.13;60.03;;;;;;;;;;6236770;28;20107;-70
2020/12/18 05:07:57;;;;;;;94.53;60.95;;;;;;;;;;6234540;28;20037;-70
2020/12/18 05:10:58;;;;;;;90.95;59.10;;;;;;;;;;6239788;28;20052;-71
2020/12/18 05:14:00;;;;;;;95.05;60.15;;;;;;;;;;6248172;28;20135;-70
2020/12/18 05:17:05;;;;;;;85.10;57.40;;;;;;;;;;6242157;28;20069;-70
2020/12/18 05:20:07;;;;;;;85.90;56.97;;;;;;;;;;6242323;28;20516;-69
2020/12/18 05:23:08;;;;;;;80.63;55.53;;;;;;;;;;6245547;28;20128;-69
2020/12/18 05:26:11;;;;;;;82.05;56.17;;;;;;;;;;6239369;28;20056;-74
2020/12/18 05:29:13;;;;;;;87.82;58.40;;;;;;;;;;6234778;28;20103;-72
2020/12/18 05:32:14;;;;;;;87.63;59.00;;;;;;;;;;6235495;28;20402;-69
2020/12/18 05:35:16;;;;;;;87.20;58.08;;;;;;;;;;6233025;28;20548;-69
2020/12/18 05:38:17;;;;;;;83.90;57.58;;;;;;;;;;6234144;28;20045;-73
2020/12/18 05:41:22;;;;;;;85.47;56.58;;;;;;;;;;6243909;28;20073;-69
2020/12/18 05:44:25;;;;;;;89.03;58.03;;;;;;;;;;6236564;28;20037;-70
2020/12/18 05:47:26;;;;;;;83.60;56.80;;;;;;;;;;6232270;28;20061;-69
2020/12/18 05:50:28;;;;;;;89.85;58.80;;;;;;;;;;6232986;28;20083;-69
2020/12/18 05:53:29;;;;;;;85.55;56.47;;;;;;;;;;6238329;28;20136;-70
2020/12/18 05:56:32;;;;;;;86.95;56.80;;;;;;;;;;6228775;28;20075;-71
2020/12/18 05:59:39;;;;;;;85.25;55.25;;;;;;;;;;6233760;28;20422;-69
2020/12/18 06:02:43;;;;;;;87.30;55.67;;;;;;;;;;6231491;28;20041;-71
2020/12/18 06:05:45;;;;;;;;;;;;;;;;;;6239580;28;20095;-69
2020/12/18 06:08:46;;;;;;;81.90;55.63;;;;;;;;;;6231929;28;20349;-70
2020/12/18 06:11:48;;;;;;;88.80;58.00;;;;;;;;;;6232414;28;20544;-69
2020/12/18 06:14:50;;;;;;;87.50;55.55;;;;;;;;;;6241632;28;20049;-70
2020/12/18 06:17:52;;;;;;;89.75;57.45;;;;;;;;;;6236633;28;20045;-70
2020/12/18 06:20:54;;;;;;;90.55;56.97;;;;;;;;;;6245741;28;20043;-71
2020/12/18 06:23:55;;;;;;;86.88;54.78;;;;;;;;;;6246514;28;20053;-70
2020/12/18 06:26:57;;;;;;;92.85;57.85;;;;;;;;;;6247970;28;20137;-71
2020/12/18 06:30:08;;;;;;;89.13;59.63;;;;;;;;;;6246712;28;20049;-71
2020/12/18 06:33:11;;;;;;;91.57;57.85;;;;;;;;;;6231686;28;20696;-70
2020/12/18 06:36:12;;;;;;;89.55;57.53;;;;;;;;;;6233100;28;20061;-71
2020/12/18 06:39:20;;;;;;;85.22;56.83;;;;;;;;;;6234136;28;20055;-70
2020/12/18 06:42:22;;;;;;;89.75;58.13;;;;;;;;;;6234069;28;20059;-70
2020/12/18 06:45:24;;;;;;;87.68;56.67;;;;;;;;;;6237726;28;20128;-69
2020/12/18 06:48:26;;;;;;;86.38;57.22;;;;;;;;;;6229136;28;20144;-70
2020/12/18 06:51:28;;;;;;;86.18;58.60;;;;;;;;;;6223722;28;20449;-71
2020/12/18 06:54:29;;;;;;;89.35;57.92;;;;;;;;;;6237974;28;20474;-70
2020/12/18 06:57:30;;;;;;;89.63;58.95;;;;;;;;;;6236569;28;20509;-70
2020/12/18 07:00:33;;;;;;;91.03;59.47;;;;;;;;;;6232507;28;20045;-71
2020/12/18 07:03:39;;;;;;;95.68;61.80;;;;;;;;;;6230730;28;20142;-70
2020/12/18 07:06:40;;;;;;;96.15;62.95;;;;;;;;;;6240763;28;20164;-71
2020/12/18 07:09:41;;;;;;;96.97;63.95;;;;;;;;;;6232070;28;20148;-70
2020/12/18 07:12:48;;;;;;;103.90;64.95;;;;;;;;;;6230092;28;20096;-69
2020/12/18 07:15:53;;;;;;;97.07;65.05;;;;;;;;;;6236939;28;20159;-69
2020/12/18 07:18:56;;;;;;;98.30;64.40;;;;;;;;;;6229946;28;20629;-70
2020/12/18 07:22:00;;;;;;;99.68;62.67;;;;;;;;;;6225522;28;20057;-69
2020/12/18 07:25:01;;;;;;;107.13;66.72;;;;;;;;;;6233604;28;20132;-70
2020/12/18 07:28:02;;;;;;;103.93;64.03;;;;;;;;;;6231077;28;20065;-69
2020/12/18 07:31:05;;;;;;;95.53;62.53;;;;;;;;;;6225246;28;20054;-70
2020/12/18 07:34:06;;;;;;;97.28;62.58;;;;;;;;;;6227382;28;20056;-71
2020/12/18 07:37:11;;;;;;;91.10;61.50;;;;;;;;;;6229674;28;20095;-70
2020/12/18 07:40:12;;;;;;;100.65;63.03;;;;;;;;;;6229162;28;20084;-70
2020/12/18 07:43:15;;;;;;;99.30;61.55;;;;;;;;;;6226339;28;20060;-71
2020/12/18 07:46:18;;;;;;;97.55;60.97;;;;;;;;;;6226693;28;20061;-73
2020/12/18 07:49:19;;;;;;;91.13;59.15;;;;;;;;;;6224889;28;20727;-71
2020/12/18 07:52:24;;;;;;;87.75;57.25;;;;;;;;;;6226228;28;20058;-70
2020/12/18 07:55:25;;;;;;;82.05;56.08;;;;;;;;;;6224964;28;20049;-70
2020/12/18 07:58:26;;;;;;;85.38;57.15;;;;;;;;;;6232708;28;20600;-70
2020/12/18 08:01:29;;;;;;;84.53;55.38;;;;;;;;;;6228329;28;20051;-70
2020/12/18 08:04:30;;;;;;;77.65;53.30;;;;;;;;;;6234311;28;20053;-70
2020/12/18 08:07:32;;;;;;;81.38;54.83;;;;;;;;;;6226728;28;20050;-73
2020/12/18 08:10:33;;;;;;;75.10;52.33;;;;;;;;;;6233042;28;20131;-69
2020/12/18 08:13:34;;;;;;;79.75;53.90;;;;;;;;;;6236141;28;20552;-70
2020/12/18 08:16:36;;;;;;;75.55;50.50;;;;;;;;;;6235302;28;20133;-70
2020/12/18 08:19:37;;;;;;;76.50;52.30;;;;;;;;;;6240738;28;20129;-73
2020/12/18 08:22:41;;;;;;;79.95;51.20;;;;;;;;;;6240007;28;20140;-71
2020/12/18 08:25:42;;;;;;;76.07;50.28;;;;;;;;;;6238430;28;20049;-70
2020/12/18 08:28:44;;;;;;;74.70;49.70;;;;;;;;;;6236907;28;20124;-70
2020/12/18 08:31:46;;;;;;;74.85;50.72;;;;;;;;;;6234957;28;20391;-70
2020/12/18 08:34:50;;;;;;;78.47;50.85;;;;;;;;;;6235830;28;20180;-72
2020/12/18 08:37:51;;;;;;;80.22;51.22;;;;;;;;;;6235310;28;20049;-69
2020/12/18 08:40:55;;;;;;;80.32;52.17;;;;;;;;;;6237831;28;20073;-71
2020/12/18 08:44:06;;;;;;;79.27;54.27;;;;;;;;;;6236693;28;20054;-70
2020/12/18 08:47:19;;;;;;;79.55;51.40;;;;;;;;;;6230697;28;20144;-69
2020/12/18 08:50:21;;;;;;;80.38;51.08;;;;;;;;;;6232104;28;20132;-70
2020/12/18 08:53:22;;;;;;;83.45;52.20;;;;;;;;;;6235295;28;20124;-72
2020/12/18 08:56:23;;;;;;;85.18;53.35;;;;;;;;;;6237346;28;20067;-70
2020/12/18 08:59:24;;;;;;;77.45;52.40;;;;;;;;;;6232398;28;20172;-70
2020/12/18 09:02:26;;;;;;;83.57;52.95;;;;;;;;;;6235351;28;20049;-72
2020/12/18 09:05:29;;;;;;;76.63;51.15;;;;;;;;;;6234514;28;20041;-69
2020/12/18 09:08:30;;;;;;;78.85;51.05;;;;;;;;;;6233650;28;20092;-70
2020/12/18 09:11:31;;;;;;;80.22;50.00;;;;;;;;;;6232981;28;20098;-70
2020/12/18 09:14:32;;;;;;;81.35;50.55;;;;;;;;;;6235483;28;20195;-69
2020/12/18 09:17:34;;;;;;;89.40;54.72;;;;;;;;;;6230934;28;20053;-69
2020/12/18 09:20:36;;;;;;;92.68;55.95;;;;;;;;;;6235290;28;20136;-68
2020/12/18 09:23:37;;;;;;;97.25;57.63;;;;;;;;;;6228511;28;20041;-68
2020/12/18 09:26:38;;;;;;;91.75;58.63;;;;;;;;;;6233410;28;20069;-69
2020/12/18 09:29:39;;;;;;;89.72;57.40;;;;;;;;;;6227712;28;20052;-69
2020/12/18 09:32:41;;;;;;;87.88;56.70;;;;;;;;;;6229679;28;20133;-69
2020/12/18 09:35:43;;;;;;;86.70;54.45;;;;;;;;;;6229814;28;20057;-69
2020/12/18 09:38:45;;;;;;;83.15;53.45;;;;;;;;;;6232589;28;20638;-68
2020/12/18 09:41:46;;;;;;;88.95;52.65;;;;;;;;;;6233533;28;20065;-69
2020/12/18 09:44:47;;;;;;;83.80;52.78;;;;;;;;;;6235235;28;20064;-69
2020/12/18 09:47:49;;;;;;;94.32;55.13;;;;;;;;;;6232982;28;20061;-69
2020/12/18 09:50:52;;;;;;;85.75;54.10;;;;;;;;;;6224739;28;20052;-70
2020/12/18 09:53:55;;;;;;;84.85;53.72;;;;;;;;;;6234373;28;20046;-68
2020/12/18 09:56:56;;;;;;;82.78;51.72;;;;;;;;;;6234982;28;20087;-68
2020/12/18 09:59:57;;;;;;;85.70;53.33;;;;;;;;;;6234474;28;20063;-68
2020/12/18 10:02:59;;;;;;;88.60;54.03;;;;;;;;;;6236384;28;20071;-68
2020/12/18 10:06:00;;;;;;;85.85;53.83;;;;;;;;;;6233872;28;20136;-69
2020/12/18 10:09:01;;;;;;;90.32;54.72;;;;;;;;;;6228555;28;20064;-68
2020/12/18 10:12:02;;;;;;;91.85;55.92;;;;;;;;;;6233870;28;20049;-69
2020/12/18 10:15:03;;;;;;;86.85;55.10;;;;;;;;;;6230681;28;20517;-71
2020/12/18 10:18:05;;;;;;;85.55;53.47;;;;;;;;;;6227951;28;20129;-69
2020/12/18 10:21:06;;;;;;;87.95;55.60;;;;;;;;;;6232813;28;20073;-69
2020/12/18 10:24:07;;;;;;;86.93;52.75;;;;;;;;;;6233762;28;20057;-69
2020/12/18 10:27:08;;;;;;;92.82;54.63;;;;;;;;;;6229393;28;20059;-71
2020/12/18 10:30:09;;;;;;;86.05;51.72;;;;;;;;;;6233510;28;20520;-71
2020/12/18 10:33:11;;;;;;;91.00;53.50;;;;;;;;;;6230427;28;20126;-69
2020/12/18 10:36:12;;;;;;;85.90;52.60;;;;;;;;;;6235833;28;20061;-68
2020/12/18 10:39:13;;;;;;;88.28;53.78;;;;;;;;;;6230245;28;20192;-71
2020/12/18 10:42:14;;;;;;;87.38;52.83;;;;;;;;;;6238728;28;20787;-68
2020/12/18 10:45:15;;;;;;;82.18;52.00;;;;;;;;;;6229389;28;20061;-68
2020/12/18 10:48:17;;;;;;;88.38;55.63;;;;;;;;;;6234496;28;20044;-72
2020/12/18 10:51:18;;;;;;;85.35;50.63;;;;;;;;;;6232667;28;20470;-70
2020/12/18 10:54:19;;;;;;;88.95;54.10;;;;;;;;;;6233574;28;20048;-69
2020/12/18 10:57:20;;;;;;;93.68;54.42;;;;;;;;;;6229927;28;20052;-69
2020/12/18 11:00:22;;;;;;;85.50;53.80;;;;;;;;;;6225344;28;20148;-71
2020/12/18 11:03:23;;;;;;;88.95;53.47;;;;;;;;;;6238050;28;20073;-69
2020/12/18 11:06:24;;;;;;;88.80;55.50;;;;;;;;;;6231428;28;20046;-69
2020/12/18 11:09:25;;;;;;;85.97;51.58;;;;;;;;;;6231315;28;20049;-69
2020/12/18 11:12:26;;;;;;;87.35;53.15;;;;;;;;;;6226568;28;20045;-70
2020/12/18 11:15:28;;;;;;;90.10;55.05;;;;;;;;;;6224825;28;20053;-71
2020/12/18 11:18:30;;;;;;;85.38;50.13;;;;;;;;;;6227050;28;20572;-68
2020/12/18 11:21:31;;;;;;;60.22;40.63;;;;;;;;;;6227388;28;20145;-69
2020/12/18 11:24:32;;;;;;;67.55;42.63;;;;;;;;;;6232896;28;20050;-71
2020/12/18 11:27:33;;;;;;;63.58;40.50;;;;;;;;;;6226599;28;20142;-69
2020/12/18 11:30:34;;;;;;;62.63;39.35;;;;;;;;;;6228528;28;20064;-68
2020/12/18 11:33:36;;;;;;;54.78;34.35;;;;;;;;;;6231657;28;20045;-71
2020/12/18 11:36:37;;;;;;;59.97;36.85;;;;;;;;;;6235413;28;20069;-69
2020/12/18 11:39:38;;;;;;;60.95;36.78;;;;;;;;;;6234509;28;20046;-68
2020/12/18 11:42:39;;;;;;;56.35;36.80;;;;;;;;;;6233171;28;20045;-71
2020/12/18 11:45:40;;;;;;;55.00;36.55;;;;;;;;;;6228333;28;20693;-69
2020/12/18 11:48:42;;;;;;;59.47;35.95;;;;;;;;;;6226660;28;20452;-68
2020/12/18 11:51:43;;;;;;;54.42;35.67;;;;;;;;;;6232651;28;20047;-71
2020/12/18 11:54:44;;;;;;;58.75;36.45;;;;;;;;;;6237384;28;20176;-68
2020/12/18 11:57:45;;;;;;;58.05;37.20;;;;;;;;;;6237174;28;20129;-69
2020/12/18 12:00:47;;;;;;;65.45;39.10;;;;;;;;;;6239049;28;20196;-69
2020/12/18 12:03:49;;;;;;;54.65;36.50;;;;;;;;;;6234603;28;20046;-68
2020/12/18 12:06:51;;;;;;;62.72;40.72;;;;;;;;;;6237508;28;20175;-69
2020/12/18 12:09:52;;;;;;;62.42;41.15;;;;;;;;;;6234725;28;20049;-69
2020/12/18 12:12:53;;;;;;;60.92;40.42;;;;;;;;;;6240968;28;20045;-69
2020/12/18 12:15:54;;;;;;;65.65;43.78;;;;;;;;;;6230772;28;20093;-69
2020/12/18 12:18:56;;;;;;;64.50;44.03;;;;;;;;;;6232627;28;20593;-68
2020/12/18 12:21:57;;;;;;;59.38;42.00;;;;;;;;;;6237271;28;20073;-69
2020/12/18 12:24:58;;;;;;;73.45;49.85;;;;;;;;;;6235582;28;20065;-71
2020/12/18 12:27:59;;;;;;;76.32;46.95;;;;;;;;;;6230925;28;20045;-68
2020/12/18 12:31:02;;;;;;;75.35;50.13;;;;;;;;;;6248842;28;20068;-70
2020/12/18 12:34:04;;;;;;;82.85;50.50;;;;;;;;;;6227347;28;20042;-69
2020/12/18 12:37:05;;;;;;;81.05;56.60;;;;;;;;;;6236748;28;20525;-70
2020/12/18 12:40:06;;;;;;;88.03;56.03;;;;;;;;;;6234207;28;20108;-68
2020/12/18 12:43:07;;;;;;;82.88;50.90;;;;;;;;;;5887736;28;10000351;-69
2020/12/18 12:46:09;;;;;;;84.68;52.55;;;;;;;;;;6232499;28;20119;-70
2020/12/18 12:49:11;;;;;;;86.72;54.63;;;;;;;;;;6235121;28;20485;-70
2020/12/18 12:52:12;;;;;;;88.18;51.40;;;;;;;;;;6238903;28;20141;-71
2020/12/18 12:55:13;;;;;;;83.65;52.67;;;;;;;;;;6235864;28;20527;-70
2020/12/18 12:58:14;;;;;;;87.88;53.53;;;;;;;;;;6237166;28;20194;-70
2020/12/18 13:01:15;;;;;;;87.40;53.65;;;;;;;;;;6231378;28;20510;-70
2020/12/18 13:04:19;;;;;;;87.28;52.53;;;;;;;;;;6235786;28;20107;-70
2020/12/18 13:07:20;;;;;;;92.50;52.95;;;;;;;;;;6232050;28;20142;-70
2020/12/18 13:10:21;;;;;;;86.55;54.17;;;;;;;;;;6227078;28;20485;-69
2020/12/18 13:13:22;;;;;;;84.40;52.17;;;;;;;;;;6231566;28;20136;-68
2020/12/18 13:16:23;;;;;;;93.13;55.38;;;;;;;;;;6225904;28;20068;-68
2020/12/18 13:19:25;;;;;;;91.90;54.97;;;;;;;;;;6234009;28;20070;-71
2020/12/18 13:22:26;;;;;;;97.13;55.38;;;;;;;;;;6231964;28;20063;-70
2020/12/18 13:25:28;;;;;;;92.38;53.75;;;;;;;;;;6231758;28;20054;-71
2020/12/18 13:28:29;;;;;;;91.85;54.28;;;;;;;;;;6233904;28;20079;-71
2020/12/18 13:31:30;;;;;;;90.47;56.50;;;;;;;;;;6225133;28;20791;-69
2020/12/18 13:34:34;;;;;;;94.35;54.60;;;;;;;;;;6229319;28;20406;-70
2020/12/18 13:37:35;;;;;;;92.88;53.90;;;;;;;;;;6233227;28;20088;-71
2020/12/18 13:40:36;;;;;;;87.93;51.85;;;;;;;;;;6231925;28;20195;-70
2020/12/18 13:43:38;;;;;;;93.45;51.08;;;;;;;;;;6229767;28;20099;-72
2020/12/18 13:46:39;;;;;;;98.07;53.35;;;;;;;;;;6228143;28;20045;-70
2020/12/18 13:49:41;;;;;;;89.03;53.00;;;;;;;;;;5884957;28;9999871;-70
2020/12/18 13:52:43;;;;;;;95.13;53.05;;;;;;;;;;6233959;28;20132;-69
2020/12/18 13:55:45;;;;;;;91.85;52.20;;;;;;;;;;6237280;28;20107;-70
2020/12/18 13:58:46;;;;;;;98.70;54.70;;;;;;;;;;6234138;28;20072;-70
2020/12/18 14:01:47;;;;;;;81.63;49.15;;;;;;;;;;6233817;28;20698;-72
2020/12/18 14:04:49;;;;;;;88.82;50.95;;;;;;;;;;6235291;28;20098;-71
2020/12/18 14:07:50;;;;;;;86.47;51.20;;;;;;;;;;6232316;28;20119;-71
2020/12/18 14:10:51;;;;;;;81.05;47.67;;;;;;;;;;6228584;28;20045;-70
2020/12/18 14:13:52;;;;;;;79.90;45.78;;;;;;;;;;6236243;28;20057;-71
2020/12/18 14:16:53;;;;;;;76.32;45.15;;;;;;;;;;6235964;28;20141;-69
2020/12/18 14:19:55;;;;;;;82.13;48.30;;;;;;;;;;6233644;28;20148;-68
2020/12/18 14:22:56;;;;;;;75.15;47.33;;;;;;;;;;6237496;28;20439;-69
2020/12/18 14:25:57;;;;;;;74.63;45.45;;;;;;;;;;6235412;28;20084;-70
2020/12/18 14:28:58;;;;;;;75.97;47.60;;;;;;;;;;6234282;28;20175;-69
2020/12/18 14:31:59;;;;;;;81.25;47.58;;;;;;;;;;6235680;28;20053;-70
2020/12/18 14:35:02;;;;;;;80.30;47.03;;;;;;;;;;6240254;28;20075;-69
2020/12/18 14:38:05;;;;;;;72.78;45.88;;;;;;;;;;6237899;28;20110;-68
2020/12/18 14:41:06;;;;;;;76.05;47.78;;;;;;;;;;6231792;28;20052;-71
2020/12/18 14:44:07;;;;;;;76.78;47.53;;;;;;;;;;6236946;28;20041;-69
2020/12/18 14:47:08;;;;;;;76.75;46.80;;;;;;;;;;6236902;28;20087;-69
2020/12/18 14:50:10;;;;;;;81.97;47.80;;;;;;;;;;6233116;28;20426;-70
2020/12/18 14:53:11;;;;;;;69.63;45.70;;;;;;;;;;6230901;28;20156;-69
2020/12/18 14:56:13;;;;;;;77.68;48.78;;;;;;;;;;6233790;28;20046;-70
2020/12/18 14:59:14;;;;;;;73.35;46.47;;;;;;;;;;6234100;28;20116;-69
2020/12/18 15:02:15;;;;;;;79.95;46.65;;;;;;;;;;6229793;28;20061;-69
2020/12/18 15:05:17;;;;;;;73.03;47.25;;;;;;;;;;6234316;28;20088;-70
2020/12/18 15:08:18;;;;;;;80.97;49.67;;;;;;;;;;6230555;28;20052;-71
2020/12/18 15:11:19;;;;;;;74.50;46.67;;;;;;;;;;6227122;28;20077;-71
2020/12/18 15:14:20;;;;;;;75.07;48.10;;;;;;;;;;6232395;28;20136;-70
2020/12/18 15:17:21;;;;;;;73.85;46.13;;;;;;;;;;6221971;28;20048;-70
2020/12/18 15:20:25;;;;;;;79.13;47.53;;;;;;;;;;6228866;28;20812;-71
2020/12/18 15:23:27;;;;;;;73.30;45.40;;;;;;;;;;6233793;28;20057;-69
2020/12/18 15:26:28;;;;;;;79.38;49.60;;;;;;;;;;6239240;28;20414;-69
2020/12/18 15:29:30;;;;;;;80.13;50.28;;;;;;;;;;6235557;28;20131;-70
2020/12/18 15:32:31;;;;;;;82.30;50.58;;;;;;;;;;6240820;28;20069;-71
2020/12/18 15:35:33;;;;;;;83.07;48.58;;;;;;;;;;6236206;28;20091;-70
2020/12/18 15:38:36;;;;;;;80.85;49.42;;;;;;;;;;6234649;28;20122;-70
2020/12/18 15:41:39;;;;;;;82.23;48.53;;;;;;;;;;6234614;28;20052;-70
2020/12/18 15:44:40;;;;;;;76.72;46.95;;;;;;;;;;6235804;28;20041;-69
2020/12/18 15:47:41;;;;;;;85.18;49.05;;;;;;;;;;6237419;28;20149;-71
2020/12/18 15:50:43;;;;;;;82.10;47.28;;;;;;;;;;6231997;28;20075;-70
2020/12/18 15:53:44;;;;;;;87.05;49.92;;;;;;;;;;6230898;28;20050;-70
2020/12/18 15:56:46;;;;;;;79.32;48.83;;;;;;;;;;6241355;28;20140;-69
2020/12/18 15:59:48;;;;;;;80.32;48.08;;;;;;;;;;6237311;28;20128;-69
2020/12/18 16:02:49;;;;;;;76.68;48.08;;;;;;;;;;6233819;28;20124;-68
2020/12/18 16:05:51;;;;;;;79.90;48.38;;;;;;;;;;6231015;28;20107;-69
2020/12/18 16:08:52;;;;;;;79.25;47.00;;;;;;;;;;6238034;28;20132;-71
2020/12/18 16:11:53;;;;;;;79.43;47.35;;;;;;;;;;6234529;28;20512;-70
2020/12/18 16:14:54;;;;;;;79.57;47.90;;;;;;;;;;6235158;28;20156;-70
2020/12/18 16:17:55;;;;;;;75.45;46.33;;;;;;;;;;6234913;28;20187;-70
2020/12/18 16:20:57;;;;;;;75.63;47.88;;;;;;;;;;6233929;28;20529;-71
2020/12/18 16:23:58;;;;;;;73.45;47.45;;;;;;;;;;6234645;28;20053;-70
2020/12/18 16:27:00;;;;;;;73.75;47.47;;;;;;;;;;6234959;28;20531;-70
2020/12/18 16:30:01;;;;;;;81.45;47.88;;;;;;;;;;6233295;28;20045;-69
2020/12/18 16:33:02;;;;;;;75.50;47.30;;;;;;;;;;6235632;28;20053;-70
2020/12/18 16:36:04;;;;;;;76.47;48.15;;;;;;;;;;6239133;28;20515;-70
2020/12/18 16:39:05;;;;;;;73.97;47.47;;;;;;;;;;6239885;28;20132;-71
2020/12/18 16:42:07;;;;;;;74.78;46.75;;;;;;;;;;6238735;28;20136;-68
2020/12/18 16:45:09;;;;;;;72.03;47.55;;;;;;;;;;6237790;28;20053;-69
2020/12/18 16:48:10;;;;;;;74.10;46.67;;;;;;;;;;6236576;28;20073;-70
2020/12/18 16:51:11;;;;;;;74.20;46.38;;;;;;;;;;6239905;28;20128;-70
2020/12/18 16:54:13;;;;;;;77.15;47.55;;;;;;;;;;6237662;28;20136;-69
2020/12/18 16:57:14;;;;;;;76.75;49.28;;;;;;;;;;6233738;28;20049;-69
2020/12/18 17:00:15;;;;;;;83.05;49.10;;;;;;;;;;6237026;28;20110;-72
2020/12/18 17:03:16;;;;;;;83.63;49.83;;;;;;;;;;6240267;28;20121;-69
2020/12/18 17:06:18;;;;;;;90.95;51.47;;;;;;;;;;6233399;28;20041;-69
2020/12/18 17:09:19;;;;;;;87.85;51.53;;;;;;;;;;6233558;28;20119;-70
2020/12/18 17:12:20;;;;;;;101.57;54.90;;;;;;;;;;6243859;28;20398;-69
2020/12/18 17:15:21;;;;;;;94.57;52.78;;;;;;;;;;6236981;28;20440;-68
2020/12/18 17:18:22;;;;;;;99.20;55.33;;;;;;;;;;6237035;28;20053;-69
2020/12/18 17:21:25;;;;;;;98.43;56.92;;;;;;;;;;6230171;28;20103;-70
2020/12/18 17:24:26;;;;;;;104.93;55.17;;;;;;;;;;6234231;28;20140;-69
2020/12/18 17:27:27;;;;;;;105.32;57.33;;;;;;;;;;6237123;28;20140;-69
2020/12/18 17:30:29;;;;;;;102.70;56.47;;;;;;;;;;6237482;28;20511;-68
2020/12/18 17:33:30;;;;;;;100.57;56.42;;;;;;;;;;6237210;28;20045;-69
2020/12/18 17:36:31;;;;;;;99.47;54.47;;;;;;;;;;6239905;28;20128;-70